sensor_id;sensor_type;location;lat;lon;timestamp;P1;durP1;ratioP1;P2;durP2;ratioP2
10947;SDS011;5526;42.070;24.752;2023-06-24T00:00:10;12.07;;;11.18;;
10947;SDS011;5526;42.070;24.752;2023-06-24T00:02:38;11.05;;;10.25;;
10947;SDS011;5526;42.070;24.752;2023-06-24T00:05:09;11.93;;;10.93;;
10947;SDS011;5526;42.070;24.752;2023-06-24T00:07:37;11.07;;;10.20;;
10947;SDS011;5526;42.070;24.752;2023-06-24T00:10:09;12.35;;;11.45;;
10947;SDS011;5526;42.070;24.752;2023-06-24T00:12:37;11.15;;;10.35;;
10947;SDS011;5526;42.070;24.752;2023-06-24T00:15:05;13.18;;;11.93;;
10947;SDS011;5526;42.070;24.752;2023-06-24T00:17:33;14.88;;;11.73;;
10947;SDS011;5526;42.070;24.752;2023-06-24T00:20:00;12.93;;;12.05;;
10947;SDS011;5526;42.070;24.752;2023-06-24T00:22:28;13.40;;;12.30;;
10947;SDS011;5526;42.070;24.752;2023-06-24T00:24:56;13.25;;;12.15;;
10947;SDS011;5526;42.070;24.752;2023-06-24T00:27:24;12.50;;;11.50;;
10947;SDS011;5526;42.070;24.752;2023-06-24T00:29:51;13.30;;;12.20;;
10947;SDS011;5526;42.070;24.752;2023-06-24T00:32:18;12.35;;;11.45;;
10947;SDS011;5526;42.070;24.752;2023-06-24T00:34:45;12.57;;;11.68;;
10947;SDS011;5526;42.070;24.752;2023-06-24T00:37:13;12.45;;;11.50;;
10947;SDS011;5526;42.070;24.752;2023-06-24T00:39:40;12.80;;;11.85;;
10947;SDS011;5526;42.070;24.752;2023-06-24T00:42:08;12.48;;;11.55;;
10947;SDS011;5526;42.070;24.752;2023-06-24T00:44:35;12.05;;;11.10;;
10947;SDS011;5526;42.070;24.752;2023-06-24T00:47:04;12.38;;;11.48;;
10947;SDS011;5526;42.070;24.752;2023-06-24T00:49:33;12.38;;;11.45;;
10947;SDS011;5526;42.070;24.752;2023-06-24T00:52:00;11.73;;;10.73;;
10947;SDS011;5526;42.070;24.752;2023-06-24T00:54:27;11.98;;;11.07;;
10947;SDS011;5526;42.070;24.752;2023-06-24T00:56:56;11.73;;;10.80;;
10947;SDS011;5526;42.070;24.752;2023-06-24T00:59:26;11.77;;;10.68;;
10947;SDS011;5526;42.070;24.752;2023-06-24T01:01:58;11.57;;;10.57;;
10947;SDS011;5526;42.070;24.752;2023-06-24T01:04:27;11.88;;;11.05;;
10947;SDS011;5526;42.070;24.752;2023-06-24T01:06:54;11.07;;;10.38;;
10947;SDS011;5526;42.070;24.752;2023-06-24T01:09:21;10.90;;;10.02;;
10947;SDS011;5526;42.070;24.752;2023-06-24T01:11:49;11.32;;;10.48;;
10947;SDS011;5526;42.070;24.752;2023-06-24T01:14:16;11.13;;;10.32;;
10947;SDS011;5526;42.070;24.752;2023-06-24T01:16:49;11.63;;;10.73;;
10947;SDS011;5526;42.070;24.752;2023-06-24T01:19:30;11.00;;;10.20;;
10947;SDS011;5526;42.070;24.752;2023-06-24T01:22:10;10.40;;;9.65;;
10947;SDS011;5526;42.070;24.752;2023-06-24T01:24:58;11.98;;;11.00;;
10947;SDS011;5526;42.070;24.752;2023-06-24T01:33:46;11.43;;;10.40;;
10947;SDS011;5526;42.070;24.752;2023-06-24T01:36:18;11.60;;;10.63;;
10947;SDS011;5526;42.070;24.752;2023-06-24T01:38:48;11.25;;;10.40;;
10947;SDS011;5526;42.070;24.752;2023-06-24T01:41:22;11.20;;;10.40;;
10947;SDS011;5526;42.070;24.752;2023-06-24T01:43:52;12.40;;;11.27;;
10947;SDS011;5526;42.070;24.752;2023-06-24T01:46:20;12.05;;;11.13;;
10947;SDS011;5526;42.070;24.752;2023-06-24T01:48:50;11.35;;;10.55;;
10947;SDS011;5526;42.070;24.752;2023-06-24T01:51:24;12.48;;;11.57;;
10947;SDS011;5526;42.070;24.752;2023-06-24T01:53:58;11.98;;;10.98;;
10947;SDS011;5526;42.070;24.752;2023-06-24T01:56:33;12.35;;;11.45;;
10947;SDS011;5526;42.070;24.752;2023-06-24T01:59:03;12.65;;;11.68;;
10947;SDS011;5526;42.070;24.752;2023-06-24T02:01:32;13.23;;;12.13;;
10947;SDS011;5526;42.070;24.752;2023-06-24T02:04:03;13.98;;;12.77;;
10947;SDS011;5526;42.070;24.752;2023-06-24T02:06:33;13.10;;;12.07;;
10947;SDS011;5526;42.070;24.752;2023-06-24T02:09:02;13.82;;;12.75;;
10947;SDS011;5526;42.070;24.752;2023-06-24T02:11:32;14.25;;;13.15;;
10947;SDS011;5526;42.070;24.752;2023-06-24T02:14:01;14.07;;;12.88;;
10947;SDS011;5526;42.070;24.752;2023-06-24T02:16:29;14.05;;;12.85;;
10947;SDS011;5526;42.070;24.752;2023-06-24T02:18:59;15.90;;;14.38;;
10947;SDS011;5526;42.070;24.752;2023-06-24T02:21:29;15.35;;;14.15;;
10947;SDS011;5526;42.070;24.752;2023-06-24T02:23:56;15.13;;;13.82;;
10947;SDS011;5526;42.070;24.752;2023-06-24T02:26:24;14.68;;;13.50;;
10947;SDS011;5526;42.070;24.752;2023-06-24T02:28:52;14.32;;;13.20;;
10947;SDS011;5526;42.070;24.752;2023-06-24T02:31:21;13.95;;;12.85;;
10947;SDS011;5526;42.070;24.752;2023-06-24T02:33:48;15.18;;;13.98;;
10947;SDS011;5526;42.070;24.752;2023-06-24T02:36:15;15.05;;;13.70;;
10947;SDS011;5526;42.070;24.752;2023-06-24T02:38:43;15.18;;;13.82;;
10947;SDS011;5526;42.070;24.752;2023-06-24T02:41:10;15.77;;;14.38;;
10947;SDS011;5526;42.070;24.752;2023-06-24T02:43:37;15.30;;;14.00;;
10947;SDS011;5526;42.070;24.752;2023-06-24T02:46:04;14.13;;;12.80;;
10947;SDS011;5526;42.070;24.752;2023-06-24T02:48:34;13.73;;;12.48;;
10947;SDS011;5526;42.070;24.752;2023-06-24T02:51:04;12.10;;;11.10;;
10947;SDS011;5526;42.070;24.752;2023-06-24T02:53:33;10.80;;;10.00;;
10947;SDS011;5526;42.070;24.752;2023-06-24T02:56:03;9.82;;;8.90;;
10947;SDS011;5526;42.070;24.752;2023-06-24T02:58:32;10.02;;;9.23;;
10947;SDS011;5526;42.070;24.752;2023-06-24T03:00:59;10.50;;;9.60;;
10947;SDS011;5526;42.070;24.752;2023-06-24T03:03:28;10.73;;;9.95;;
10947;SDS011;5526;42.070;24.752;2023-06-24T03:05:56;10.80;;;9.90;;
10947;SDS011;5526;42.070;24.752;2023-06-24T03:08:23;10.15;;;9.38;;
10947;SDS011;5526;42.070;24.752;2023-06-24T03:10:52;11.43;;;10.35;;
10947;SDS011;5526;42.070;24.752;2023-06-24T03:13:24;10.50;;;9.60;;
10947;SDS011;5526;42.070;24.752;2023-06-24T03:15:51;10.55;;;9.65;;
10947;SDS011;5526;42.070;24.752;2023-06-24T03:18:19;11.20;;;10.20;;
10947;SDS011;5526;42.070;24.752;2023-06-24T03:20:46;11.75;;;10.75;;
10947;SDS011;5526;42.070;24.752;2023-06-24T03:23:13;12.15;;;10.93;;
10947;SDS011;5526;42.070;24.752;2023-06-24T03:25:40;11.85;;;10.60;;
10947;SDS011;5526;42.070;24.752;2023-06-24T03:28:07;10.85;;;9.93;;
10947;SDS011;5526;42.070;24.752;2023-06-24T03:30:36;10.32;;;9.50;;
10947;SDS011;5526;42.070;24.752;2023-06-24T03:33:03;10.60;;;9.70;;
10947;SDS011;5526;42.070;24.752;2023-06-24T03:35:31;10.98;;;9.95;;
10947;SDS011;5526;42.070;24.752;2023-06-24T03:37:58;10.80;;;9.80;;
10947;SDS011;5526;42.070;24.752;2023-06-24T03:40:25;10.85;;;9.98;;
10947;SDS011;5526;42.070;24.752;2023-06-24T03:42:52;10.05;;;9.02;;
10947;SDS011;5526;42.070;24.752;2023-06-24T03:45:19;9.93;;;9.20;;
10947;SDS011;5526;42.070;24.752;2023-06-24T03:47:48;10.25;;;9.30;;
10947;SDS011;5526;42.070;24.752;2023-06-24T03:50:15;10.57;;;9.57;;
10947;SDS011;5526;42.070;24.752;2023-06-24T03:52:42;10.13;;;9.30;;
10947;SDS011;5526;42.070;24.752;2023-06-24T03:55:11;10.90;;;9.90;;
10947;SDS011;5526;42.070;24.752;2023-06-24T03:57:38;9.75;;;8.95;;
10947;SDS011;5526;42.070;24.752;2023-06-24T04:00:05;9.95;;;9.15;;
10947;SDS011;5526;42.070;24.752;2023-06-24T04:02:40;9.57;;;8.82;;
10947;SDS011;5526;42.070;24.752;2023-06-24T04:05:09;9.93;;;9.15;;
10947;SDS011;5526;42.070;24.752;2023-06-24T04:07:36;9.75;;;8.90;;
10947;SDS011;5526;42.070;24.752;2023-06-24T04:10:05;10.95;;;10.07;;
10947;SDS011;5526;42.070;24.752;2023-06-24T04:12:34;11.25;;;10.38;;
10947;SDS011;5526;42.070;24.752;2023-06-24T04:15:01;11.70;;;10.57;;
10947;SDS011;5526;42.070;24.752;2023-06-24T04:17:29;11.45;;;10.38;;
10947;SDS011;5526;42.070;24.752;2023-06-24T04:19:57;11.50;;;10.38;;
10947;SDS011;5526;42.070;24.752;2023-06-24T04:22:25;10.32;;;9.55;;
10947;SDS011;5526;42.070;24.752;2023-06-24T04:24:53;11.52;;;10.55;;
10947;SDS011;5526;42.070;24.752;2023-06-24T04:27:20;12.25;;;11.23;;
10947;SDS011;5526;42.070;24.752;2023-06-24T04:29:47;11.18;;;10.30;;
10947;SDS011;5526;42.070;24.752;2023-06-24T04:32:14;10.77;;;9.85;;
10947;SDS011;5526;42.070;24.752;2023-06-24T04:34:41;11.48;;;10.63;;
10947;SDS011;5526;42.070;24.752;2023-06-24T04:37:08;12.25;;;11.10;;
10947;SDS011;5526;42.070;24.752;2023-06-24T04:39:36;11.80;;;11.00;;
10947;SDS011;5526;42.070;24.752;2023-06-24T04:42:03;11.90;;;11.00;;
10947;SDS011;5526;42.070;24.752;2023-06-24T04:44:31;11.50;;;10.50;;
10947;SDS011;5526;42.070;24.752;2023-06-24T04:46:58;11.75;;;10.82;;
10947;SDS011;5526;42.070;24.752;2023-06-24T04:49:25;12.18;;;11.18;;
10947;SDS011;5526;42.070;24.752;2023-06-24T04:51:52;11.60;;;10.80;;
10947;SDS011;5526;42.070;24.752;2023-06-24T04:54:19;11.55;;;10.55;;
10947;SDS011;5526;42.070;24.752;2023-06-24T04:56:47;12.18;;;11.20;;
10947;SDS011;5526;42.070;24.752;2023-06-24T04:59:16;12.05;;;10.90;;
10947;SDS011;5526;42.070;24.752;2023-06-24T05:01:43;11.82;;;10.65;;
10947;SDS011;5526;42.070;24.752;2023-06-24T05:04:10;11.15;;;10.35;;
10947;SDS011;5526;42.070;24.752;2023-06-24T05:06:37;12.57;;;11.57;;
10947;SDS011;5526;42.070;24.752;2023-06-24T05:09:04;11.98;;;11.07;;
10947;SDS011;5526;42.070;24.752;2023-06-24T05:11:31;12.65;;;11.55;;
10947;SDS011;5526;42.070;24.752;2023-06-24T05:13:59;12.65;;;11.55;;
10947;SDS011;5526;42.070;24.752;2023-06-24T05:16:28;13.00;;;11.98;;
10947;SDS011;5526;42.070;24.752;2023-06-24T05:18:55;12.88;;;11.88;;
10947;SDS011;5526;42.070;24.752;2023-06-24T05:21:22;13.73;;;12.55;;
10947;SDS011;5526;42.070;24.752;2023-06-24T05:23:49;12.27;;;11.38;;
10947;SDS011;5526;42.070;24.752;2023-06-24T05:26:17;13.43;;;12.02;;
10947;SDS011;5526;42.070;24.752;2023-06-24T05:28:44;13.18;;;12.18;;
10947;SDS011;5526;42.070;24.752;2023-06-24T05:31:12;13.10;;;12.10;;
10947;SDS011;5526;42.070;24.752;2023-06-24T05:33:39;14.35;;;13.15;;
10947;SDS011;5526;42.070;24.752;2023-06-24T05:36:07;14.27;;;12.80;;
10947;SDS011;5526;42.070;24.752;2023-06-24T05:38:34;12.93;;;11.73;;
10947;SDS011;5526;42.070;24.752;2023-06-24T05:41:01;14.00;;;12.57;;
10947;SDS011;5526;42.070;24.752;2023-06-24T05:43:28;13.93;;;12.82;;
10947;SDS011;5526;42.070;24.752;2023-06-24T05:45:56;13.68;;;12.48;;
10947;SDS011;5526;42.070;24.752;2023-06-24T05:48:24;15.48;;;14.07;;
10947;SDS011;5526;42.070;24.752;2023-06-24T05:50:51;16.85;;;15.35;;
10947;SDS011;5526;42.070;24.752;2023-06-24T05:53:18;17.45;;;15.98;;
10947;SDS011;5526;42.070;24.752;2023-06-24T05:55:46;16.80;;;15.32;;
10947;SDS011;5526;42.070;24.752;2023-06-24T05:58:13;17.17;;;15.70;;
10947;SDS011;5526;42.070;24.752;2023-06-24T06:00:40;17.40;;;15.88;;
10947;SDS011;5526;42.070;24.752;2023-06-24T06:03:07;16.40;;;15.20;;
10947;SDS011;5526;42.070;24.752;2023-06-24T06:05:37;17.58;;;16.17;;
10947;SDS011;5526;42.070;24.752;2023-06-24T06:08:04;17.08;;;15.77;;
10947;SDS011;5526;42.070;24.752;2023-06-24T06:10:31;16.08;;;14.88;;
10947;SDS011;5526;42.070;24.752;2023-06-24T06:12:58;16.80;;;15.40;;
10947;SDS011;5526;42.070;24.752;2023-06-24T06:15:25;15.68;;;14.38;;
10947;SDS011;5526;42.070;24.752;2023-06-24T06:17:52;16.08;;;14.57;;
10947;SDS011;5526;42.070;24.752;2023-06-24T06:20:20;17.00;;;15.80;;
10947;SDS011;5526;42.070;24.752;2023-06-24T06:22:48;17.05;;;15.70;;
10947;SDS011;5526;42.070;24.752;2023-06-24T06:25:16;16.30;;;15.07;;
10947;SDS011;5526;42.070;24.752;2023-06-24T06:27:43;17.40;;;15.82;;
10947;SDS011;5526;42.070;24.752;2023-06-24T06:30:11;17.02;;;15.70;;
10947;SDS011;5526;42.070;24.752;2023-06-24T06:32:40;17.90;;;16.30;;
10947;SDS011;5526;42.070;24.752;2023-06-24T06:35:07;18.15;;;16.60;;
10947;SDS011;5526;42.070;24.752;2023-06-24T06:37:34;17.35;;;15.93;;
10947;SDS011;5526;42.070;24.752;2023-06-24T06:40:03;17.77;;;16.27;;
10947;SDS011;5526;42.070;24.752;2023-06-24T06:42:32;18.05;;;16.55;;
10947;SDS011;5526;42.070;24.752;2023-06-24T06:44:59;18.73;;;17.25;;
10947;SDS011;5526;42.070;24.752;2023-06-24T06:47:26;18.45;;;16.98;;
10947;SDS011;5526;42.070;24.752;2023-06-24T06:49:53;19.13;;;17.52;;
10947;SDS011;5526;42.070;24.752;2023-06-24T06:52:20;18.63;;;17.05;;
10947;SDS011;5526;42.070;24.752;2023-06-24T06:54:48;17.23;;;15.93;;
10947;SDS011;5526;42.070;24.752;2023-06-24T06:57:16;18.52;;;17.05;;
10947;SDS011;5526;42.070;24.752;2023-06-24T06:59:43;18.42;;;17.00;;
10947;SDS011;5526;42.070;24.752;2023-06-24T07:02:11;18.58;;;17.17;;
10947;SDS011;5526;42.070;24.752;2023-06-24T07:04:38;17.20;;;15.98;;
10947;SDS011;5526;42.070;24.752;2023-06-24T07:07:05;17.38;;;16.08;;
10947;SDS011;5526;42.070;24.752;2023-06-24T07:09:32;17.15;;;15.85;;
10947;SDS011;5526;42.070;24.752;2023-06-24T07:11:59;16.55;;;15.35;;
10947;SDS011;5526;42.070;24.752;2023-06-24T07:14:28;18.13;;;16.73;;
10947;SDS011;5526;42.070;24.752;2023-06-24T07:16:55;18.23;;;16.65;;
10947;SDS011;5526;42.070;24.752;2023-06-24T07:19:22;19.38;;;17.77;;
10947;SDS011;5526;42.070;24.752;2023-06-24T07:21:49;17.15;;;15.95;;
10947;SDS011;5526;42.070;24.752;2023-06-24T07:24:17;17.38;;;15.98;;
10947;SDS011;5526;42.070;24.752;2023-06-24T07:26:44;17.83;;;16.48;;
10947;SDS011;5526;42.070;24.752;2023-06-24T07:29:12;17.58;;;16.02;;
10947;SDS011;5526;42.070;24.752;2023-06-24T07:31:40;18.27;;;16.92;;
10947;SDS011;5526;42.070;24.752;2023-06-24T07:34:07;16.30;;;15.10;;
10947;SDS011;5526;42.070;24.752;2023-06-24T07:36:34;17.20;;;15.90;;
10947;SDS011;5526;42.070;24.752;2023-06-24T07:39:02;18.13;;;16.63;;
10947;SDS011;5526;42.070;24.752;2023-06-24T07:41:29;18.58;;;17.15;;
10947;SDS011;5526;42.070;24.752;2023-06-24T07:43:56;18.23;;;16.75;;
10947;SDS011;5526;42.070;24.752;2023-06-24T07:46:23;17.95;;;16.42;;
10947;SDS011;5526;42.070;24.752;2023-06-24T07:48:53;16.90;;;15.60;;
10947;SDS011;5526;42.070;24.752;2023-06-24T07:51:21;18.38;;;17.00;;
10947;SDS011;5526;42.070;24.752;2023-06-24T07:53:48;16.80;;;15.50;;
10947;SDS011;5526;42.070;24.752;2023-06-24T07:56:15;37.83;;;18.00;;
10947;SDS011;5526;42.070;24.752;2023-06-24T07:58:42;18.38;;;16.88;;
10947;SDS011;5526;42.070;24.752;2023-06-24T08:01:10;17.70;;;16.40;;
10947;SDS011;5526;42.070;24.752;2023-06-24T08:03:37;17.48;;;15.98;;
10947;SDS011;5526;42.070;24.752;2023-06-24T08:06:06;17.63;;;16.20;;
10947;SDS011;5526;42.070;24.752;2023-06-24T08:08:33;17.50;;;16.10;;
10947;SDS011;5526;42.070;24.752;2023-06-24T08:11:02;18.55;;;17.17;;
10947;SDS011;5526;42.070;24.752;2023-06-24T08:13:29;17.23;;;15.90;;
10947;SDS011;5526;42.070;24.752;2023-06-24T08:15:56;19.23;;;17.67;;
10947;SDS011;5526;42.070;24.752;2023-06-24T08:18:24;19.33;;;17.73;;
10947;SDS011;5526;42.070;24.752;2023-06-24T08:20:51;19.30;;;17.50;;
10947;SDS011;5526;42.070;24.752;2023-06-24T08:23:19;17.00;;;15.70;;
10947;SDS011;5526;42.070;24.752;2023-06-24T08:25:47;18.45;;;16.92;;
10947;SDS011;5526;42.070;24.752;2023-06-24T08:28:14;17.58;;;16.17;;
10947;SDS011;5526;42.070;24.752;2023-06-24T08:30:41;17.50;;;16.20;;
10947;SDS011;5526;42.070;24.752;2023-06-24T08:33:08;17.15;;;15.95;;
10947;SDS011;5526;42.070;24.752;2023-06-24T08:35:35;17.88;;;16.55;;
10947;SDS011;5526;42.070;24.752;2023-06-24T08:38:02;17.70;;;16.30;;
10947;SDS011;5526;42.070;24.752;2023-06-24T08:40:31;18.25;;;16.85;;
10947;SDS011;5526;42.070;24.752;2023-06-24T08:42:58;17.23;;;15.88;;
10947;SDS011;5526;42.070;24.752;2023-06-24T08:45:25;17.55;;;16.25;;
10947;SDS011;5526;42.070;24.752;2023-06-24T08:47:53;17.60;;;16.10;;
10947;SDS011;5526;42.070;24.752;2023-06-24T08:50:22;17.63;;;16.33;;
10947;SDS011;5526;42.070;24.752;2023-06-24T08:52:53;16.60;;;15.30;;
10947;SDS011;5526;42.070;24.752;2023-06-24T08:55:22;16.98;;;15.77;;
10947;SDS011;5526;42.070;24.752;2023-06-24T08:57:51;16.38;;;15.27;;
10947;SDS011;5526;42.070;24.752;2023-06-24T09:00:18;16.58;;;15.13;;
10947;SDS011;5526;42.070;24.752;2023-06-24T09:02:45;17.02;;;15.73;;
10947;SDS011;5526;42.070;24.752;2023-06-24T09:05:13;15.68;;;14.48;;
10947;SDS011;5526;42.070;24.752;2023-06-24T09:07:40;17.08;;;15.60;;
10947;SDS011;5526;42.070;24.752;2023-06-24T09:10:08;13.90;;;12.70;;
10947;SDS011;5526;42.070;24.752;2023-06-24T09:12:35;14.30;;;13.20;;
10947;SDS011;5526;42.070;24.752;2023-06-24T09:15:05;14.30;;;13.13;;
10947;SDS011;5526;42.070;24.752;2023-06-24T09:17:32;15.20;;;14.00;;
10947;SDS011;5526;42.070;24.752;2023-06-24T09:20:03;15.32;;;14.20;;
10947;SDS011;5526;42.070;24.752;2023-06-24T09:22:31;15.68;;;14.48;;
10947;SDS011;5526;42.070;24.752;2023-06-24T09:25:00;15.30;;;14.00;;
10947;SDS011;5526;42.070;24.752;2023-06-24T09:27:30;14.73;;;13.32;;
10947;SDS011;5526;42.070;24.752;2023-06-24T09:29:58;14.00;;;12.75;;
10947;SDS011;5526;42.070;24.752;2023-06-24T09:32:28;13.07;;;12.00;;
10947;SDS011;5526;42.070;24.752;2023-06-24T09:34:56;14.20;;;13.10;;
10947;SDS011;5526;42.070;24.752;2023-06-24T09:37:24;14.40;;;12.95;;
10947;SDS011;5526;42.070;24.752;2023-06-24T09:39:56;13.98;;;12.88;;
10947;SDS011;5526;42.070;24.752;2023-06-24T09:42:23;14.50;;;13.38;;
10947;SDS011;5526;42.070;24.752;2023-06-24T09:44:53;14.35;;;13.20;;
10947;SDS011;5526;42.070;24.752;2023-06-24T09:47:21;13.68;;;12.57;;
10947;SDS011;5526;42.070;24.752;2023-06-24T09:49:52;14.23;;;12.93;;
10947;SDS011;5526;42.070;24.752;2023-06-24T09:52:20;13.60;;;12.70;;
10947;SDS011;5526;42.070;24.752;2023-06-24T09:54:49;14.15;;;13.13;;
10947;SDS011;5526;42.070;24.752;2023-06-24T09:57:18;14.20;;;13.10;;
10947;SDS011;5526;42.070;24.752;2023-06-24T09:59:50;12.85;;;11.88;;
10947;SDS011;5526;42.070;24.752;2023-06-24T10:02:18;12.43;;;11.48;;
10947;SDS011;5526;42.070;24.752;2023-06-24T10:04:46;12.57;;;11.77;;
10947;SDS011;5526;42.070;24.752;2023-06-24T10:07:15;13.73;;;12.63;;
10947;SDS011;5526;42.070;24.752;2023-06-24T10:09:42;12.98;;;11.98;;
10947;SDS011;5526;42.070;24.752;2023-06-24T10:12:10;13.55;;;12.52;;
10947;SDS011;5526;42.070;24.752;2023-06-24T10:14:37;12.32;;;11.43;;
10947;SDS011;5526;42.070;24.752;2023-06-24T10:17:04;13.15;;;12.25;;
10947;SDS011;5526;42.070;24.752;2023-06-24T10:19:37;13.90;;;12.88;;
10947;SDS011;5526;42.070;24.752;2023-06-24T10:22:07;13.68;;;12.68;;
10947;SDS011;5526;42.070;24.752;2023-06-24T10:24:38;13.93;;;12.77;;
10947;SDS011;5526;42.070;24.752;2023-06-24T10:27:07;14.07;;;13.07;;
10947;SDS011;5526;42.070;24.752;2023-06-24T10:29:35;14.77;;;13.68;;
10947;SDS011;5526;42.070;24.752;2023-06-24T10:32:04;15.32;;;14.25;;
10947;SDS011;5526;42.070;24.752;2023-06-24T10:34:42;14.82;;;13.82;;
10947;SDS011;5526;42.070;24.752;2023-06-24T10:37:14;15.10;;;13.90;;
10947;SDS011;5526;42.070;24.752;2023-06-24T10:39:50;14.93;;;13.90;;
10947;SDS011;5526;42.070;24.752;2023-06-24T10:42:25;13.70;;;12.57;;
10947;SDS011;5526;42.070;24.752;2023-06-24T10:45:00;13.90;;;12.90;;
10947;SDS011;5526;42.070;24.752;2023-06-24T10:47:29;14.75;;;13.35;;
10947;SDS011;5526;42.070;24.752;2023-06-24T10:49:56;13.55;;;12.38;;
10947;SDS011;5526;42.070;24.752;2023-06-24T10:52:24;13.15;;;12.15;;
10947;SDS011;5526;42.070;24.752;2023-06-24T10:54:53;13.35;;;12.45;;
10947;SDS011;5526;42.070;24.752;2023-06-24T10:57:20;15.25;;;14.05;;
10947;SDS011;5526;42.070;24.752;2023-06-24T10:59:49;14.30;;;13.30;;
10947;SDS011;5526;42.070;24.752;2023-06-24T11:02:17;15.13;;;13.93;;
10947;SDS011;5526;42.070;24.752;2023-06-24T11:04:46;14.10;;;13.00;;
10947;SDS011;5526;42.070;24.752;2023-06-24T11:07:14;14.02;;;12.88;;
10947;SDS011;5526;42.070;24.752;2023-06-24T11:09:47;14.02;;;12.75;;
10947;SDS011;5526;42.070;24.752;2023-06-24T11:12:17;13.90;;;12.90;;
10947;SDS011;5526;42.070;24.752;2023-06-24T11:14:44;14.57;;;13.48;;
10947;SDS011;5526;42.070;24.752;2023-06-24T11:17:12;13.68;;;12.68;;
10947;SDS011;5526;42.070;24.752;2023-06-24T11:19:39;14.18;;;13.02;;
10947;SDS011;5526;42.070;24.752;2023-06-24T11:22:07;14.55;;;13.55;;
10947;SDS011;5526;42.070;24.752;2023-06-24T11:24:34;14.50;;;13.40;;
10947;SDS011;5526;42.070;24.752;2023-06-24T11:27:03;14.73;;;13.63;;
10947;SDS011;5526;42.070;24.752;2023-06-24T11:29:32;14.85;;;13.88;;
10947;SDS011;5526;42.070;24.752;2023-06-24T11:32:01;14.18;;;13.27;;
10947;SDS011;5526;42.070;24.752;2023-06-24T11:34:29;14.40;;;13.25;;
10947;SDS011;5526;42.070;24.752;2023-06-24T11:36:56;14.45;;;13.40;;
10947;SDS011;5526;42.070;24.752;2023-06-24T11:39:24;13.90;;;12.95;;
10947;SDS011;5526;42.070;24.752;2023-06-24T11:41:52;14.20;;;13.20;;
10947;SDS011;5526;42.070;24.752;2023-06-24T11:44:19;14.05;;;13.05;;
10947;SDS011;5526;42.070;24.752;2023-06-24T11:46:49;12.80;;;11.85;;
10947;SDS011;5526;42.070;24.752;2023-06-24T11:49:17;13.25;;;12.15;;
10947;SDS011;5526;42.070;24.752;2023-06-24T11:51:46;13.05;;;12.00;;
10947;SDS011;5526;42.070;24.752;2023-06-24T11:54:14;11.95;;;11.15;;
10947;SDS011;5526;42.070;24.752;2023-06-24T11:56:43;12.77;;;11.85;;
10947;SDS011;5526;42.070;24.752;2023-06-24T11:59:16;12.50;;;11.60;;
10947;SDS011;5526;42.070;24.752;2023-06-24T12:01:44;11.75;;;11.02;;
10947;SDS011;5526;42.070;24.752;2023-06-24T12:04:13;11.48;;;10.77;;
10947;SDS011;5526;42.070;24.752;2023-06-24T12:06:41;12.85;;;11.95;;
10947;SDS011;5526;42.070;24.752;2023-06-24T12:09:08;12.73;;;11.80;;
10947;SDS011;5526;42.070;24.752;2023-06-24T12:11:36;12.35;;;11.63;;
10947;SDS011;5526;42.070;24.752;2023-06-24T12:14:03;12.82;;;11.90;;
10947;SDS011;5526;42.070;24.752;2023-06-24T12:16:31;12.70;;;11.75;;
10947;SDS011;5526;42.070;24.752;2023-06-24T12:18:59;12.13;;;11.43;;
10947;SDS011;5526;42.070;24.752;2023-06-24T12:21:27;12.27;;;11.40;;
10947;SDS011;5526;42.070;24.752;2023-06-24T12:23:54;11.30;;;10.68;;
10947;SDS011;5526;42.070;24.752;2023-06-24T12:26:21;11.68;;;10.88;;
10947;SDS011;5526;42.070;24.752;2023-06-24T12:28:49;12.13;;;11.15;;
10947;SDS011;5526;42.070;24.752;2023-06-24T12:31:16;11.98;;;11.07;;
10947;SDS011;5526;42.070;24.752;2023-06-24T12:33:43;11.63;;;10.93;;
10947;SDS011;5526;42.070;24.752;2023-06-24T12:36:10;11.93;;;11.23;;
10947;SDS011;5526;42.070;24.752;2023-06-24T12:38:39;11.85;;;11.02;;
10947;SDS011;5526;42.070;24.752;2023-06-24T12:41:06;12.10;;;11.23;;
10947;SDS011;5526;42.070;24.752;2023-06-24T12:43:33;12.07;;;11.23;;
10947;SDS011;5526;42.070;24.752;2023-06-24T12:46:01;11.88;;;11.07;;
10947;SDS011;5526;42.070;24.752;2023-06-24T12:48:28;11.38;;;10.60;;
10947;SDS011;5526;42.070;24.752;2023-06-24T12:50:55;11.32;;;10.50;;
10947;SDS011;5526;42.070;24.752;2023-06-24T12:53:22;12.10;;;11.30;;
10947;SDS011;5526;42.070;24.752;2023-06-24T12:55:51;12.23;;;11.32;;
10947;SDS011;5526;42.070;24.752;2023-06-24T12:58:19;11.25;;;10.55;;
10947;SDS011;5526;42.070;24.752;2023-06-24T13:00:47;11.60;;;10.90;;
10947;SDS011;5526;42.070;24.752;2023-06-24T13:03:14;11.07;;;10.38;;
10947;SDS011;5526;42.070;24.752;2023-06-24T13:05:41;11.20;;;10.50;;
10947;SDS011;5526;42.070;24.752;2023-06-24T13:08:08;10.85;;;10.20;;
10947;SDS011;5526;42.070;24.752;2023-06-24T13:10:36;11.10;;;10.40;;
10947;SDS011;5526;42.070;24.752;2023-06-24T13:13:05;10.55;;;9.90;;
10947;SDS011;5526;42.070;24.752;2023-06-24T13:15:32;9.85;;;9.25;;
10947;SDS011;5526;42.070;24.752;2023-06-24T13:17:59;11.10;;;10.38;;
10947;SDS011;5526;42.070;24.752;2023-06-24T13:20:26;10.73;;;10.13;;
10947;SDS011;5526;42.070;24.752;2023-06-24T13:22:54;10.55;;;9.85;;
10947;SDS011;5526;42.070;24.752;2023-06-24T13:25:21;11.10;;;10.32;;
10947;SDS011;5526;42.070;24.752;2023-06-24T13:27:48;10.80;;;10.10;;
10947;SDS011;5526;42.070;24.752;2023-06-24T13:30:17;11.18;;;10.38;;
10947;SDS011;5526;42.070;24.752;2023-06-24T13:32:44;11.60;;;10.80;;
10947;SDS011;5526;42.070;24.752;2023-06-24T13:35:12;10.98;;;10.18;;
10947;SDS011;5526;42.070;24.752;2023-06-24T13:37:39;11.75;;;10.95;;
10947;SDS011;5526;42.070;24.752;2023-06-24T13:40:06;11.25;;;10.55;;
10947;SDS011;5526;42.070;24.752;2023-06-24T13:42:35;11.27;;;10.48;;
10947;SDS011;5526;42.070;24.752;2023-06-24T13:45:02;12.48;;;11.50;;
10947;SDS011;5526;42.070;24.752;2023-06-24T13:47:31;11.38;;;10.27;;
10947;SDS011;5526;42.070;24.752;2023-06-24T13:49:58;11.30;;;10.57;;
10947;SDS011;5526;42.070;24.752;2023-06-24T13:52:25;10.77;;;10.07;;
10947;SDS011;5526;42.070;24.752;2023-06-24T13:54:53;11.00;;;10.30;;
10947;SDS011;5526;42.070;24.752;2023-06-24T13:57:21;10.70;;;9.98;;
10947;SDS011;5526;42.070;24.752;2023-06-24T13:59:48;10.95;;;10.05;;
10947;SDS011;5526;42.070;24.752;2023-06-24T14:02:15;10.45;;;9.65;;
10947;SDS011;5526;42.070;24.752;2023-06-24T14:04:44;10.30;;;9.60;;
10947;SDS011;5526;42.070;24.752;2023-06-24T14:07:11;10.90;;;9.93;;
10947;SDS011;5526;42.070;24.752;2023-06-24T14:09:38;10.18;;;9.30;;
10947;SDS011;5526;42.070;24.752;2023-06-24T14:12:06;10.50;;;9.80;;
10947;SDS011;5526;42.070;24.752;2023-06-24T14:14:34;9.52;;;8.93;;
10947;SDS011;5526;42.070;24.752;2023-06-24T14:17:04;10.20;;;9.50;;
10947;SDS011;5526;42.070;24.752;2023-06-24T14:19:35;9.63;;;9.02;;
10947;SDS011;5526;42.070;24.752;2023-06-24T14:22:04;10.18;;;9.48;;
10947;SDS011;5526;42.070;24.752;2023-06-24T14:24:33;9.73;;;9.13;;
10947;SDS011;5526;42.070;24.752;2023-06-24T14:27:03;12.82;;;9.75;;
10947;SDS011;5526;42.070;24.752;2023-06-24T14:29:30;9.65;;;9.05;;
10947;SDS011;5526;42.070;24.752;2023-06-24T14:31:57;10.15;;;9.55;;
10947;SDS011;5526;42.070;24.752;2023-06-24T14:34:26;9.93;;;9.20;;